ADDS METAR Data INFO
IDs: Format: Raw Decoded Include TAF

Data at: 2110 UTC 22 Oct 2017

KD50 222055Z AUTO 22014G20KT 10SM SCT065 12/08 A2954 RMK AO2 PWINO
KD50 222035Z AUTO 21015KT 10SM FEW047 SCT060 BKN070 10/09 A2954 RMK AO2 PWINO
KD50 222015Z AUTO 20014G19KT 9SM FEW038 OVC055 08/08 A2954 RMK AO2 PWINO
KD50 221955Z AUTO 21011KT 3SM BR FEW020 BKN039 OVC050 07/07 A2956 RMK AO2 PWINO
KD50 221935Z AUTO 21013KT 5SM BR FEW029 BKN040 OVC050 07/05 A2956 RMK AO2 PWINO
KD50 221915Z AUTO 20014KT 5SM HZ FEW029 BKN040 OVC050 08/05 A2956 RMK AO2 PWINO
KD50 221855Z AUTO 21017KT 9SM FEW029 BKN040 OVC055 08/02 A2957 RMK AO2 PWINO
KD50 221835Z AUTO 21017G23KT 10SM FEW035 SCT042 BKN055 09/M01 A2958 RMK AO2 PWINO
KD50 221815Z AUTO 20019G25KT 10SM FEW055 BKN100 08/M01 A2959 RMK AO2 PWINO
KD50 221755Z AUTO 20020G28KT 10SM FEW046 SCT070 BKN100 08/M02 A2959 RMK AO2 PWINO
KD50 221735Z AUTO 21016KT 10SM BKN047 07/M02 A2961 RMK AO2 PWINO
KD50 221715Z AUTO 21013KT 10SM FEW049 SCT060 06/M03 A2963 RMK AO2 PWINO
KD50 221655Z AUTO 21016KT 10SM SCT050 BKN060 BKN080 06/M02 A2963 RMK AO2 PWINO
KD50 221635Z AUTO 20013KT 10SM FEW060 BKN075 05/M03 A2964 RMK AO2 PWINO
KD50 221615Z AUTO 19016KT 10SM BKN075 BKN085 04/M03 A2965 RMK AO2 PWINO
KD50 221555Z AUTO 20015KT 10SM SCT080 04/M03 A2966 RMK AO2 PWINO
KD50 221535Z AUTO 19014KT 10SM FEW080 SCT095 04/M03 A2967 RMK AO2 PWINO
KD50 221515Z AUTO 20014KT 10SM BKN095 03/M03 A2967 RMK AO2 PWINO
KD50 221455Z AUTO 20014KT 10SM BKN100 02/M03 A2968 RMK AO2 PWINO
KD50 221435Z AUTO 20012KT 10SM BKN110 02/M03 A2969 RMK AO2 PWINO
KD50 221415Z AUTO 20012KT 10SM FEW120 00/M03 A2971 RMK AO2 PWINO
KD50 221355Z AUTO 20010KT 10SM CLR M01/M03 A2971 RMK AO2 PWINO
KD50 221335Z AUTO 20011KT 10SM CLR M01/M04 A2971 RMK AO2 PWINO
KD50 221315Z AUTO 20013KT 10SM CLR M01/M04 A2972 RMK AO2 PWINO
KD50 221255Z AUTO 20011KT 10SM CLR M01/M04 A2971 RMK AO2 PWINO
KD50 221235Z AUTO 19013KT 10SM CLR M01/M03 A2971 RMK AO2 PWINO
KD50 221215Z AUTO 20012KT 10SM CLR M01/M04 A2971 RMK AO2 PWINO
KD50 221155Z AUTO 20012KT 10SM CLR M01/M03 A2973 RMK AO2 PWINO
KD50 221135Z AUTO 19010KT 10SM CLR M01/M04 A2973 RMK AO2 PWINO
KD50 221115Z AUTO 20010KT 10SM CLR M01/M04 A2973 RMK AO2 PWINO
KD50 221055Z AUTO 20012KT 10SM CLR M01/M03 A2974 RMK AO2 PWINO
KD50 221035Z AUTO 22010KT 10SM CLR M00/M03 A2974 RMK AO2 PWINO
KD50 221015Z AUTO 21012KT 10SM CLR M00/M03 A2974 RMK AO2 PWINO
KD50 220955Z AUTO 23009G15KT 10SM CLR 00/M03 A2974 RMK AO2 PWINO
KD50 220935Z AUTO 21008KT 10SM CLR M00/M03 A2974 RMK AO2 PWINO
KD50 220915Z AUTO 23009KT 10SM CLR 01/M03 A2975 RMK AO2 PWINO
KD50 220855Z AUTO 24009KT 10SM CLR 01/M03 A2975 RMK AO2 PWINO
KD50 220835Z AUTO 24010KT 10SM CLR 01/M03 A2976 RMK AO2 PWINO
KD50 220815Z AUTO 24010KT 10SM CLR 02/M03 A2976 RMK AO2 PWINO
KD50 220755Z AUTO 25011G17KT 10SM CLR 02/M03 A2976 RMK AO2 PWINO
KD50 220735Z AUTO 24009KT 10SM CLR 01/M03 A2977 RMK AO2 PWINO
KD50 220715Z AUTO 24009KT 10SM CLR 02/M03 A2976 RMK AO2 PWINO
KD50 220655Z AUTO 26010KT 10SM CLR 02/M03 A2976 RMK AO2 PWINO
KD50 220635Z AUTO 25008KT 10SM CLR 02/M03 A2976 RMK AO2 PWINO
KD50 220615Z AUTO 27010G16KT 10SM CLR 04/M02 A2975 RMK AO2 PWINO
KD50 220555Z AUTO 27012G18KT 10SM CLR 04/M02 A2976 RMK AO2 PWINO
KD50 220535Z AUTO 27011G16KT 10SM CLR 04/M02 A2976 RMK AO2 PWINO
KD50 220515Z AUTO 28012G17KT 10SM CLR 05/M02 A2975 RMK AO2 PWINO
KD50 220455Z AUTO 27013KT 10SM CLR 05/M02 A2976 RMK AO2 PWINO
KD50 220435Z AUTO 27013KT 10SM CLR 05/M02 A2976 RMK AO2 PWINO
KD50 220415Z AUTO 27010G15KT 10SM CLR 04/M01 A2975 RMK AO2 PWINO
KD50 220355Z AUTO 27011KT 10SM CLR 05/M01 A2975 RMK AO2 PWINO
KD50 220335Z AUTO 27010KT 10SM CLR 04/M01 A2975 RMK AO2 PWINO
KD50 220315Z AUTO 26009KT 10SM CLR 04/M01 A2975 RMK AO2 PWINO
KD50 220255Z AUTO 26011G16KT 10SM CLR 05/M01 A2974 RMK AO2 PWINO
KD50 220235Z AUTO 26011KT 10SM CLR 05/M01 A2974 RMK AO2 PWINO
KD50 220215Z AUTO 26011KT 10SM CLR 06/M01 A2974 RMK AO2 PWINO
KD50 220155Z AUTO 27011G16KT 10SM CLR 06/M01 A2974 RMK AO2 PWINO
KD50 220135Z AUTO 27012KT 10SM SCT070 06/M00 A2973 RMK AO2 PWINO
KD50 220115Z AUTO 28014KT 10SM OVC065 08/M00 A2973 RMK AO2 PWINO
KD50 220055Z AUTO 28016KT 10SM SCT055 OVC065 08/01 A2972 RMK AO2 PWINO
KD50 220035Z AUTO 28011KT 10SM SCT048 OVC055 08/02 A2971 RMK AO2 PWINO
KD50 220015Z AUTO 30016G23KT 10SM OVC046 09/01 A2970 RMK AO2 PWINO
KD50 212355Z AUTO 30019G29KT 10SM SCT036 BKN044 OVC049 09/01 A2970 RMK AO2 PWINO
KD50 212335Z AUTO 31026G31KT 10SM OVC037 09/01 A2968 RMK AO2 PWINO
KD50 212315Z AUTO 30024G32KT 10SM OVC037 08/01 A2968 RMK AO2 PWINO
KD50 212255Z AUTO 30026G34KT 10SM BKN030 OVC036 08/02 A2966 RMK AO2 PWINO
KD50 212235Z AUTO 29025G32KT 10SM OVC028 08/02 A2965 RMK AO2 PWINO
KD50 212215Z AUTO 30020G26KT 10SM OVC026 08/02 A2964 RMK AO2 PWINO
KD50 212155Z AUTO 30028KT 9SM BKN023 OVC030 08/03 A2964 RMK AO2 PWINO
KD50 212135Z AUTO 30023G33KT 10SM OVC024 08/02 A2963 RMK AO2 PWINO
KD50 212115Z AUTO 29021G31KT 9SM OVC025 08/03 A2962 RMK AO2 PWINO
KD50 212055Z AUTO 31018G27KT 10SM OVC027 08/02 A2961 RMK AO2 PWINO
KD50 212035Z AUTO 30021G32KT 10SM OVC025 08/02 A2961 RMK AO2 PWINO
KD50 212015Z AUTO 30022G29KT 10SM OVC026 08/02 A2959 RMK AO2 PWINO
KD50 211955Z AUTO 29018G28KT 10SM OVC027 08/02 A2959 RMK AO2 PWINO
KD50 211935Z AUTO 30024G33KT 10SM OVC026 08/02 A2958 RMK AO2 PWINO
KD50 211915Z AUTO 29022G28KT 10SM OVC025 08/02 A2957 RMK AO2 PWINO
KD50 211855Z AUTO 28022G32KT 10SM OVC023 08/03 A2956 RMK AO2 PWINO
KD50 211835Z AUTO 28021G30KT 10SM OVC021 08/03 A2956 RMK AO2 PWINO
KD50 211815Z AUTO 29026G31KT 10SM BKN018 OVC026 08/03 A2955 RMK AO2 PWINO
KD50 211755Z AUTO 29024G31KT 10SM OVC016 07/03 A2954 RMK AO2 PWINO
KD50 211735Z AUTO 28025G34KT 10SM OVC015 07/04 A2953 RMK AO2 PWINO
KD50 211715Z AUTO 29027G34KT 10SM BKN016 OVC027 07/04 A2953 RMK AO2 PWINO
KD50 211655Z AUTO 28022G28KT 10SM BKN015 OVC027 08/04 A2952 RMK AO2 PWINO
KD50 211635Z AUTO 28019G30KT 10SM OVC015 07/05 A2952 RMK AO2 PWINO
KD50 211615Z AUTO 28024KT 10SM OVC018 08/05 A2951 RMK AO2 PWINO
KD50 211555Z AUTO 28020G29KT 10SM OVC021 09/04 A2949 RMK AO2 PWINO
KD50 211535Z AUTO 29021G28KT 10SM OVC022 09/05 A2949 RMK AO2 PWINO
KD50 211515Z AUTO 26018KT 10SM OVC024 09/05 A2949 RMK AO2 PWINO
KD50 211455Z AUTO 25013KT 10SM BKN026 08/05 A2948 RMK AO2 PWINO
KD50 211435Z AUTO 25009KT 10SM SCT026 07/04 A2947 RMK AO2 PWINO
KD50 211415Z AUTO 24010KT 10SM FEW026 06/04 A2948 RMK AO2 PWINO
KD50 211355Z AUTO 26012KT 10SM CLR 07/04 A2947 RMK AO2 PWINO
KD50 211335Z AUTO 26014KT 10SM CLR 07/04 A2946 RMK AO2 PWINO
KD50 211315Z AUTO 25011KT 10SM CLR 07/04 A2945 RMK AO2 PWINO
KD50 211255Z AUTO 26011KT 10SM CLR 07/03 A2944 RMK AO2 PWINO
KD50 211235Z AUTO 25009KT 10SM CLR 07/03 A2944 RMK AO2 PWINO
KD50 211215Z AUTO 26011G17KT 10SM CLR 07/03 A2942 RMK AO2 PWINO
KD50 211155Z AUTO 25015G21KT 10SM CLR 07/03 A2941 RMK AO2 PWINO
KD50 211135Z AUTO 24017G23KT 10SM CLR 08/03 A2941 RMK AO2 PWINO
KD50 211115Z AUTO 23013KT 10SM CLR 07/03 A2941 RMK AO2 PWINO
KD50 211055Z AUTO 24014KT 10SM CLR 08/03 A2939 RMK AO2 PWINO
KD50 211035Z AUTO 23015KT 10SM CLR 08/03 A2938 RMK AO2 PWINO
KD50 211015Z AUTO 24012G17KT 10SM CLR 09/02 A2935 RMK AO2 PWINO
KD50 210955Z AUTO 25013KT 10SM CLR 09/01 A2934 RMK AO2 PWINO
KD50 210935Z AUTO 24014KT 10SM CLR 10/01 A2934 RMK AO2 PWINO
KD50 210915Z AUTO 24013KT 10SM CLR 10/01 A2932 RMK AO2 PWINO